Latest Weather Observations for Bundaberg

IDQ60801

Issued at 11:35 pm EST Thursday 27 November 2014 (issued every 30 minutes, with the page automatically refreshed every 10 minutes)

About weather observations | Map of weather stations | Latest weather observations for QLD | Other Formats
Station Details ID: 039128 Name: BUNDABERG AERO Lat: -24.91 Lon: 152.32 Height: 30.82 m
Data from the previous 72 hours. | See also: Recent months at Bundaberg
Date/Time
EST
Temp
°C
App
Temp
°C
Dew
Point
Rel
Hum
%
Delta-T
°C
Wind Press
QNH
hPa
Press
MSL
hPa
Rain
since 9 am
mm
Dir
 
Spd
km/h
Gust
km/h
Spd
kts
Gust
kts
27/11:30pm 23.2 23.8 18.5 75 3.0 ESE 13 17 7 9 1015.9 1015.7 0.0
27/11:00pm 23.5 24.7 19.0 76 2.9 E 11 13 6 7 1015.8 1015.6 0.0
27/10:30pm 23.7 23.6 18.8 74 3.1 E 17 24 9 13 1015.8 1015.6 0.0
27/10:00pm 23.4 24.9 18.9 76 2.9 E 9 13 5 7 1016.1 1015.9 0.0
27/09:30pm 23.9 25.1 19.0 74 3.1 ESE 11 13 6 7 1016.1 1015.9 0.0
27/09:00pm 24.3 25.5 19.1 73 3.3 E 11 15 6 8 1016.0 1015.8 0.0
27/08:30pm 24.4 25.7 19.2 73 3.3 ENE 11 13 6 7 1015.9 1015.7 0.0
27/08:00pm 24.3 25.1 19.1 73 3.3 ENE 13 15 7 8 1015.4 1015.2 0.0
27/07:30pm 24.7 24.9 19.3 72 3.5 ENE 17 22 9 12 1014.7 1014.5 0.0
27/07:00pm 24.9 25.2 19.5 72 3.5 NE 17 22 9 12 1014.5 1014.3 0.0
27/06:30pm 25.1 25.0 19.5 71 3.6 NE 19 24 10 13 1014.3 1014.1 0.0
27/06:00pm 25.6 24.9 19.5 69 3.9 NNE 22 30 12 16 1013.5 1013.3 0.0
27/05:30pm 26.3 25.9 19.4 66 4.5 NE 20 28 11 15 1013.2 1013.0 0.0
27/05:00pm 26.8 26.0 19.2 63 4.9 NE 22 28 12 15 1012.9 1012.7 0.0
27/04:30pm 27.5 27.0 19.0 59 5.5 NE 20 28 11 15 1012.8 1012.6 0.0
27/04:00pm 28.5 27.6 19.1 56 6.1 ENE 22 30 12 16 1012.6 1012.4 0.0
27/03:30pm 29.1 27.9 18.5 52 6.8 ENE 22 28 12 15 1012.7 1012.5 0.0
27/03:00pm 29.9 28.9 18.0 48 7.6 ENE 20 26 11 14 1012.7 1012.5 0.0
27/02:30pm 29.5 28.0 17.7 49 7.5 ENE 22 30 12 16 1013.0 1012.8 0.0
27/02:00pm 29.8 29.5 18.3 50 7.4 NE 17 24 9 13 1013.0 1012.8 0.0
27/01:30pm 29.7 29.6 17.8 48 7.6 NE 15 24 8 13 1013.4 1013.2 0.0
27/01:00pm 28.6 28.0 17.5 51 7.0 E 17 22 9 12 1013.7 1013.5 0.0
27/12:30pm 28.9 27.8 18.7 54 6.6 NE 22 28 12 15 1014.0 1013.8 0.0
27/12:00pm 29.8 29.7 19.5 54 6.7 ENE 19 32 10 17 1014.4 1014.2 0.0
27/11:30am 28.1 28.8 18.8 57 6.0 NNE 13 22 7 12 1014.8 1014.6 0.0
27/11:00am 27.8 28.0 18.5 57 5.9 NNE 15 24 8 13 1015.2 1015.0 0.0
27/10:30am 27.9 28.0 18.3 56 6.1 N 15 22 8 12 1015.6 1015.4 0.0
27/10:00am 27.7 29.0 17.5 53 6.4 NNE 7 15 4 8 1015.8 1015.6 0.0
27/09:30am 27.4 29.5 18.1 57 5.9 NE 4 9 2 5 1016.1 1015.9 0.0
27/09:00am 28.1 28.8 18.8 57 6.0 N 13 17 7 9 1016.0 1015.8 0.0
27/08:30am 27.4 27.7 18.7 59 5.6 NE 15 22 8 12 1016.1 1015.9 0.0
27/08:00am 26.2 28.4 19.6 67 4.3 ENE 7 15 4 8 1016.4 1016.2 0.0
27/07:30am 25.8 28.1 19.9 70 3.8 ESE 7 11 4 6 1016.5 1016.3 0.0
27/07:00am 24.9 27.7 20.4 76 2.9 S 6 11 3 6 1016.3 1016.1 0.0
27/06:30am 24.1 27.0 21.0 83 2.0 S 7 9 4 5 1016.0 1015.8 0.0
27/06:00am 22.5 25.9 20.2 87 1.5 S 2 9 1 5 1015.6 1015.4 0.0
27/05:30am 21.6 23.7 20.1 91 1.0 S 9 11 5 6 1015.4 1015.2 0.0
27/05:00am 21.6 23.3 20.1 91 1.0 SSW 11 15 6 8 1015.2 1015.0 0.0
27/04:30am 21.6 24.0 20.1 91 1.0 S 7 9 4 5 1014.7 1014.5 0.0
27/04:00am 21.7 24.8 19.6 88 1.3 ENE 2 6 1 3 1014.4 1014.2 0.0
27/03:30am 22.4 25.1 20.3 88 1.4 E 6 7 3 4 1014.3 1014.1 0.0
27/03:00am 22.3 26.1 20.2 88 1.4 CALM 0 0 0 0 1014.4 1014.2 0.0
27/02:30am 22.2 24.8 20.1 88 1.4 SSE 6 9 3 5 1014.7 1014.5 0.0
27/02:00am 22.3 24.4 20.2 88 1.4 S 9 9 5 5 1014.9 1014.7 0.0
27/01:30am 22.3 24.8 20.2 88 1.4 S 7 9 4 5 1015.1 1014.9 0.0
27/01:00am 22.7 25.2 20.2 86 1.6 E 7 11 4 6 1015.2 1015.0 0.0
27/12:30am 22.7 24.7 20.0 85 1.7 E 9 9 5 5 1015.6 1015.4 0.0
27/12:00am 23.3 24.7 20.4 84 1.9 E 13 15 7 8 1016.0 1015.8 0.0
 
Date/Time
EST
Temp
°C
App
Temp
°C
Dew
Point
Rel
Hum
%
Delta-T
°C
Wind Press
QNH
hPa
Press
MSL
hPa
Rain
since 9 am
mm
Dir
 
Spd
km/h
Gust
km/h
Spd
kts
Gust
kts
26/11:30pm 22.9 25.0 20.2 85 1.7 ESE 9 11 5 6 1016.5 1016.3 0.0
26/11:00pm 23.3 25.1 20.4 84 1.9 E 11 13 6 7 1016.8 1016.7 0.0
26/10:30pm 23.4 25.6 20.3 83 2.0 ESE 9 11 5 6 1016.9 1016.8 0.0
26/10:00pm 23.5 25.5 20.0 81 2.3 SE 9 11 5 6 1016.9 1016.8 0.0
26/09:30pm 23.8 25.4 19.9 79 2.5 E 11 13 6 7 1016.7 1016.5 0.0
26/09:00pm 23.9 25.5 20.0 79 2.5 ENE 11 15 6 8 1016.4 1016.2 0.0
26/08:30pm 23.8 25.2 19.5 77 2.8 E 11 17 6 9 1016.0 1015.8 0.0
26/08:00pm 24.1 25.3 19.0 73 3.2 ENE 11 13 6 7 1015.9 1015.7 0.0
26/07:30pm 24.4 25.9 19.0 72 3.4 ENE 9 13 5 7 1015.9 1015.7 0.0
26/07:00pm 24.7 25.5 19.1 71 3.6 ENE 13 19 7 10 1015.7 1015.5 0.0
26/06:30pm 24.9 25.6 18.8 69 3.9 ENE 13 19 7 10 1015.5 1015.3 0.0
26/06:00pm 25.4 25.0 18.8 67 4.2 ENE 19 22 10 12 1015.2 1015.0 0.0
26/05:30pm 26.3 25.6 18.2 61 5.1 NE 19 22 10 12 1015.0 1014.8 0.0
26/05:00pm 27.5 26.7 17.9 55 6.1 NE 19 26 10 14 1014.7 1014.5 0.0
26/04:30pm 27.9 27.1 18.0 55 6.3 NNE 19 22 10 12 1014.2 1014.0 0.0
26/04:00pm 28.2 27.0 17.1 51 7.0 NE 19 24 10 13 1014.2 1014.0 0.0
26/03:30pm 28.5 27.3 17.4 51 7.0 NE 20 32 11 17 1013.8 1013.6 0.0
26/03:00pm 28.8 27.3 17.7 51 7.0 NE 22 30 12 16 1014.0 1013.8 0.0
26/02:30pm 28.9 28.0 18.1 52 6.9 NE 20 32 11 17 1014.1 1013.9 0.0
26/02:00pm 29.1 28.4 18.2 51 7.0 NE 19 28 10 15 1014.3 1014.1 0.0
26/01:30pm 29.4 28.8 18.5 52 7.0 ENE 19 24 10 13 1014.6 1014.4 0.0
26/01:00pm 30.0 29.7 19.1 52 7.1 ENE 19 28 10 15 1015.0 1014.8 0.0
26/12:30pm 29.9 29.4 19.0 52 7.1 ENE 20 32 11 17 1015.3 1015.1 0.0
26/12:00pm 29.6 29.1 19.0 53 6.9 ENE 20 32 11 17 1015.7 1015.5 0.0
26/11:30am 29.4 28.2 18.5 52 7.0 NE 22 33 12 18 1015.9 1015.7 0.0
26/11:00am 28.7 26.8 17.6 51 7.0 NE 24 33 13 18 1016.0 1015.8 0.0
26/10:30am 28.9 27.8 18.7 54 6.6 ENE 22 33 12 18 1016.2 1016.0 0.0
26/10:00am 27.6 26.2 18.0 55 6.1 ENE 22 32 12 17 1016.4 1016.2 0.0
26/09:30am 28.7 27.8 19.1 56 6.2 ENE 22 35 12 19 1016.3 1016.1 0.0
26/09:00am 29.3 28.9 20.2 58 6.0 ENE 22 30 12 16 1016.5 1016.3 0.0
26/08:30am 27.1 27.0 18.7 60 5.4 ENE 17 24 9 13 1016.7 1016.5 0.0
26/08:00am 25.8 26.3 20.1 71 3.7 NE 17 22 9 12 1016.6 1016.4 0.0
26/07:30am 26.6 27.8 20.7 70 3.9 ENE 15 22 8 12 1016.4 1016.2 0.0
26/07:00am 25.5 25.6 19.9 71 3.6 ENE 19 24 10 13 1016.2 1016.0 0.0
26/06:30am 24.8 26.0 20.7 78 2.7 NE 15 19 8 10 1016.0 1015.8 0.0
26/06:00am 24.0 26.0 20.7 82 2.2 ENE 11 13 6 7 1015.6 1015.4 0.0
26/05:30am 23.5 26.5 21.2 87 1.5 ENE 7 11 4 6 1015.6 1015.4 0.0
26/05:00am 22.7 25.4 20.6 88 1.4 E 7 9 4 5 1015.2 1015.0 0.0
26/04:30am 22.9 25.2 20.6 87 1.5 E 9 11 5 6 1015.1 1014.9 0.0
26/04:00am 23.2 25.9 20.7 86 1.6 E 7 9 4 5 1015.0 1014.8 0.0
26/03:30am 23.3 25.8 21.0 87 1.5 E 9 11 5 6 1014.8 1014.6 0.0
26/03:00am 23.5 26.1 21.2 87 1.5 E 9 11 5 6 1014.6 1014.4 0.0
26/02:30am 23.7 25.9 21.2 86 1.6 ENE 11 13 6 7 1014.6 1014.4 0.0
26/02:00am 24.2 27.0 21.5 85 1.8 E 9 13 5 7 1014.6 1014.4 0.0
26/01:30am 24.0 26.5 21.1 84 1.9 ENE 9 13 5 7 1014.7 1014.5 0.0
26/01:00am 24.6 27.0 21.5 83 2.1 NE 11 15 6 8 1014.9 1014.7 0.0
26/12:30am 24.9 27.4 21.8 83 2.1 NE 11 17 6 9 1015.1 1014.9 0.0
26/12:00am 24.8 27.3 21.7 83 2.1 NNE 11 17 6 9 1015.1 1014.9 0.0
 
Date/Time
EST
Temp
°C
App
Temp
°C
Dew
Point
Rel
Hum
%
Delta-T
°C
Wind Press
QNH
hPa
Press
MSL
hPa
Rain
since 9 am
mm
Dir
 
Spd
km/h
Gust
km/h
Spd
kts
Gust
kts
25/11:30pm 25.1 27.1 21.6 81 2.3 N 13 17 7 9 1015.5 1015.3 0.0
25/11:00pm 25.0 26.7 21.7 82 2.2 N 15 20 8 11 1015.3 1015.1 0.0
25/10:30pm 24.8 25.8 21.7 83 2.1 NNE 19 26 10 14 1015.0 1014.8 0.0
25/10:00pm 24.9 26.3 21.8 83 2.1 N 17 20 9 11 1015.2 1015.0 0.0
25/09:30pm 25.0 26.4 21.9 83 2.1 N 17 22 9 12 1015.2 1015.0 0.0
25/09:00pm 25.1 26.5 21.8 82 2.2 N 17 22 9 12 1015.0 1014.8 0.0
25/08:30pm 25.2 26.2 21.7 81 2.3 N 19 24 10 13 1014.8 1014.6 0.0
25/08:00pm 25.3 26.3 21.8 81 2.3 N 19 24 10 13 1014.7 1014.5 0.0
25/07:30pm 25.4 26.2 21.7 80 2.5 N 20 24 11 13 1014.3 1014.1 0.0
25/07:00pm 25.5 26.3 21.8 80 2.5 N 20 26 11 14 1014.0 1013.8 0.0
25/06:30pm 25.7 26.0 21.6 78 2.7 N 22 28 12 15 1013.5 1013.3 0.0
25/06:00pm 26.2 26.1 21.4 75 3.2 NNE 24 33 13 18 1013.2 1013.0 0.0
25/05:30pm 27.0 26.8 21.3 71 3.8 NNE 24 30 13 16 1012.9 1012.7 0.0
25/05:00pm 27.8 27.8 21.6 69 4.1 NNE 24 30 13 16 1012.7 1012.5 0.0
25/04:30pm 28.4 28.0 20.9 64 5.0 NNE 24 32 13 17 1012.6 1012.4 0.0
25/04:00pm 28.6 27.9 20.3 60 5.5 NNE 24 32 13 17 1012.5 1012.3 0.0
25/03:30pm 29.7 29.2 20.8 58 5.9 NNE 24 33 13 18 1012.3 1012.1 0.0
25/03:00pm 29.1 28.5 19.7 57 6.1 NNE 22 30 12 16 1012.6 1012.4 0.0
25/02:30pm 29.4 29.2 19.7 56 6.3 NNE 20 33 11 18 1012.9 1012.7 0.0
25/02:00pm 29.5 28.3 19.2 54 6.7 NNE 24 32 13 17 1013.1 1012.9 0.0
25/01:30pm 30.3 30.3 20.2 54 6.7 NNE 20 33 11 18 1013.2 1013.0 0.0
25/01:00pm 29.9 29.2 18.7 51 7.2 NNE 20 32 11 17 1013.6 1013.4 0.0
25/12:30pm 29.4 28.8 18.5 52 7.0 NE 19 30 10 16 1014.1 1013.9 0.0
25/12:00pm 30.0 29.8 19.7 54 6.7 NNE 20 32 11 17 1014.6 1014.4 0.0
25/11:30am 29.6 29.2 18.1 50 7.4 NNE 17 26 9 14 1014.9 1014.7 0.0
25/11:00am 29.5 28.3 17.0 47 7.9 N 19 28 10 15 1015.3 1015.1 0.0
25/10:30am 29.1 28.8 17.3 49 7.5 N 15 20 8 11 1015.8 1015.6 0.0
25/10:00am 29.3 29.6 18.7 52 6.8 N 15 22 8 12 1016.0 1015.8 0.0
25/09:30am 28.2 27.5 18.3 55 6.3 N 19 24 10 13 1016.1 1015.9 0.0
25/09:00am 27.5 28.2 18.8 59 5.6 NNW 13 17 7 9 1016.2 1016.0 0.0
25/08:30am 27.1 27.8 18.9 61 5.3 N 13 17 7 9 1016.3 1016.1 0.0
25/08:00am 26.3 26.6 18.7 63 4.9 N 15 20 8 11 1016.2 1016.0 0.0
25/07:30am 25.6 26.6 19.5 69 3.9 NNE 13 20 7 11 1016.1 1015.9 0.0
25/07:00am 24.8 27.7 19.0 70 3.7 NE 2 7 1 4 1016.1 1015.9 0.0
25/06:30am 23.5 26.8 19.0 76 2.9 CALM 0 0 0 0 1015.9 1015.7 0.0
25/06:00am 21.4 24.8 19.3 88 1.3 CALM 0 0 0 0 1015.8 1015.6 0.0
25/05:30am 20.1 22.9 18.9 93 0.8 S 2 6 1 3 1015.4 1015.2 0.0
25/05:00am 18.7 21.3 17.5 93 0.7 CALM 0 0 0 0 1015.2 1015.0 0.0
25/04:30am 18.7 21.3 17.4 92 0.8 CALM 0 0 0 0 1014.8 1014.6 0.0
25/04:00am 19.1 21.7 17.6 91 0.9 CALM 0 0 0 0 1014.5 1014.3 0.0
25/03:30am 19.4 22.3 18.1 92 0.8 CALM 0 0 0 0 1014.6 1014.4 0.0
25/03:00am 19.8 22.7 18.3 91 0.9 CALM 0 0 0 0 1014.5 1014.3 0.0
25/02:30am 19.7 21.7 17.8 89 1.2 NW 4 6 2 3 1014.5 1014.3 0.0
25/02:00am 19.9 21.5 17.9 88 1.2 NE 6 11 3 6 1014.5 1014.3 0.0
25/01:30am 20.8 23.9 18.6 87 1.4 CALM 0 0 0 0 1014.8 1014.6 0.0
25/01:00am 21.2 23.5 18.6 85 1.6 N 4 6 2 3 1015.1 1014.9 0.0
25/12:30am 21.9 23.9 18.7 82 2.0 NNE 6 7 3 4 1015.4 1015.2 0.0
25/12:00am 22.2 23.7 18.8 81 2.1 NE 9 11 5 6 1015.8 1015.6 0.0

Other Formats:

Comma delimited format used in spreadsheet applications
http://www.bom.gov.au/fwo/IDQ60801/IDQ60801.94387.axf

JavaScript Object Notation format (JSON) in row-major order
http://www.bom.gov.au/fwo/IDQ60801/IDQ60801.94387.json